Time;durP1;ratioP1;P1;durP2;ratioP2;P2;SDS_P1;SDS_P2;PMS_P1;PMS_P2;Temp;Humidity;BMP_temperature;BMP_pressure;BME280_temperature;BME280_humidity;BME280_pressure;Samples;Min_cycle;Max_cycle;Signal;HPM_P1;HPM_P2
2023/09/16 00:01:13;;;;;;;2.10;1.70;;;17.20;99.90;;;;;;5032010;28;20295;-69
2023/09/16 00:03:39;;;;;;;5.80;2.10;;;17.20;99.90;;;;;;5032845;28;20177;-69
2023/09/16 00:06:05;;;;;;;3.90;2.30;;;17.20;99.90;;;;;;5027171;28;20622;-69
2023/09/16 00:08:33;;;;;;;4.50;2.10;;;17.20;99.90;;;;;;5027191;28;20227;-70
2023/09/16 00:11:00;;;;;;;3.33;1.90;;;17.20;99.90;;;;;;5028473;28;20223;-70
2023/09/16 00:13:26;;;;;;;4.15;2.10;;;17.10;99.90;;;;;;5027720;28;20209;-69
2023/09/16 00:15:52;;;;;;;3.95;1.65;;;17.10;99.90;;;;;;5030008;28;20187;-68
2023/09/16 00:18:18;;;;;;;5.50;1.95;;;17.10;99.90;;;;;;5030758;28;20176;-68
2023/09/16 00:20:48;;;;;;;3.20;2.30;;;17.10;99.90;;;;;;5030186;28;20250;-70
2023/09/16 00:23:14;;;;;;;4.47;1.60;;;17.10;99.90;;;;;;5030964;28;20214;-67
2023/09/16 00:25:39;;;;;;;7.03;2.05;;;17.00;99.90;;;;;;5023962;28;20597;-67
2023/09/16 00:28:08;;;;;;;3.15;1.58;;;17.00;99.90;;;;;;5024062;28;20243;-67
2023/09/16 00:30:36;;;;;;;2.33;1.50;;;16.90;99.90;;;;;;5025387;28;20235;-67
2023/09/16 00:33:04;;;;;;;3.90;2.10;;;16.90;99.90;;;;;;5028621;28;20235;-67
2023/09/16 00:35:30;;;;;;;5.18;1.85;;;16.90;99.90;;;;;;5025882;28;20288;-68
2023/09/16 00:37:56;;;;;;;3.13;2.00;;;16.80;99.90;;;;;;5024764;28;20307;-68
2023/09/16 00:40:21;;;;;;;3.88;2.13;;;16.80;99.90;;;;;;5029122;28;20584;-68
2023/09/16 00:42:47;;;;;;;5.20;2.10;;;16.80;99.90;;;;;;5025591;28;20259;-69
2023/09/16 00:45:14;;;;;;;3.85;1.80;;;16.80;99.90;;;;;;5028103;28;20181;-68
2023/09/16 00:47:40;;;;;;;3.15;2.08;;;16.80;99.90;;;;;;5028137;28;20216;-68
2023/09/16 00:50:07;;;;;;;4.78;1.92;;;16.70;99.90;;;;;;5030233;28;20287;-68
2023/09/16 00:52:39;;;;;;;3.60;1.83;;;16.70;99.90;;;;;;5028886;28;20231;-68
2023/09/16 00:55:05;;;;;;;3.67;1.60;;;16.70;99.90;;;;;;5030733;28;20211;-68
2023/09/16 00:57:32;;;;;;;5.00;1.90;;;16.60;99.90;;;;;;5029784;28;20236;-68
2023/09/16 00:59:58;;;;;;;3.67;1.55;;;16.70;99.90;;;;;;5027319;28;20204;-68
2023/09/16 01:02:26;;;;;;;4.18;2.13;;;16.70;99.90;;;;;;5024228;28;20212;-68
2023/09/16 01:04:53;;;;;;;3.35;1.85;;;16.70;99.90;;;;;;5022748;28;20208;-69
2023/09/16 01:07:20;;;;;;;4.60;2.10;;;16.60;99.90;;;;;;5026207;28;20315;-68
2023/09/16 01:09:46;;;;;;;3.17;2.08;;;16.70;99.90;;;;;;5043289;28;20180;-68
2023/09/16 01:12:11;;;;;;;2.67;1.70;;;16.60;99.90;;;;;;5024088;28;20177;-68
2023/09/16 01:14:37;;;;;;;3.25;1.83;;;16.60;99.90;;;;;;5027352;28;20215;-68
2023/09/16 01:17:10;;;;;;;2.25;1.63;;;16.50;99.90;;;;;;5030654;28;20303;-68
2023/09/16 01:20:01;;;;;;;3.72;1.52;;;16.50;99.90;;;;;;5024881;28;20694;-67
2023/09/16 01:22:27;;;;;;;3.17;2.00;;;16.50;99.90;;;;;;5024031;28;20235;-68
2023/09/16 01:24:56;;;;;;;3.60;1.80;;;16.50;99.90;;;;;;5028036;28;20179;-70
2023/09/16 01:27:21;;;;;;;4.78;2.13;;;16.40;99.90;;;;;;5028331;28;20255;-69
2023/09/16 01:29:48;;;;;;;4.47;2.00;;;16.40;99.90;;;;;;5030736;28;20204;-69
2023/09/16 01:32:16;;;;;;;3.65;1.80;;;16.40;99.90;;;;;;5027665;28;20208;-68
2023/09/16 01:34:49;;;;;;;5.93;2.20;;;16.40;99.90;;;;;;5025629;28;20204;-70
2023/09/16 01:37:19;;;;;;;3.65;2.20;;;16.40;99.90;;;;;;5026175;28;20212;-69
2023/09/16 01:39:49;;;;;;;5.55;2.03;;;16.30;99.90;;;;;;5030394;28;20176;-70
2023/09/16 01:42:16;;;;;;;6.78;1.98;;;16.30;99.90;;;;;;5023158;28;20260;-69
2023/09/16 01:44:42;;;;;;;5.57;2.00;;;16.30;99.90;;;;;;5027313;28;20232;-70
2023/09/16 01:47:07;;;;;;;2.42;1.80;;;16.30;99.90;;;;;;5025747;28;20216;-70
2023/09/16 01:49:33;;;;;;;3.25;1.80;;;16.10;99.90;;;;;;5027871;28;20209;-70
2023/09/16 01:51:59;;;;;;;4.60;1.90;;;16.20;99.90;;;;;;5024960;28;20179;-68
2023/09/16 01:54:25;;;;;;;3.63;1.98;;;16.20;99.90;;;;;;5028962;28;20705;-69
2023/09/16 01:56:51;;;;;;;8.15;2.20;;;16.10;99.90;;;;;;5024528;28;20208;-69
2023/09/16 01:59:16;;;;;;;4.68;2.00;;;16.20;99.90;;;;;;5028173;28;20211;-68
2023/09/16 02:01:43;;;;;;;7.32;2.40;;;16.20;99.90;;;;;;5023430;28;20201;-69
2023/09/16 02:04:09;;;;;;;5.97;1.90;;;16.20;99.90;;;;;;5029029;28;20341;-69
2023/09/16 02:06:35;;;;;;;4.00;1.90;;;16.20;99.90;;;;;;5025673;28;20208;-69
2023/09/16 02:09:00;;;;;;;4.20;1.90;;;16.10;99.90;;;;;;5029578;28;20215;-70
2023/09/16 02:11:26;;;;;;;2.78;2.05;;;16.10;99.90;;;;;;5027767;28;20211;-69
2023/09/16 02:13:51;;;;;;;4.20;2.42;;;16.10;99.90;;;;;;5030019;28;20209;-69
2023/09/16 02:16:17;;;;;;;3.83;1.63;;;16.10;99.90;;;;;;5025912;28;20217;-69
2023/09/16 02:18:43;;;;;;;3.90;1.98;;;16.10;99.90;;;;;;5028960;28;20168;-70
2023/09/16 02:21:09;;;;;;;5.13;1.77;;;16.00;99.90;;;;;;5030259;28;20271;-70
2023/09/16 02:23:34;;;;;;;7.20;2.28;;;16.10;99.90;;;;;;5018953;28;20209;-69
2023/09/16 02:26:01;;;;;;;2.78;1.83;;;16.10;99.90;;;;;;5029825;28;20224;-69
2023/09/16 02:28:27;;;;;;;4.43;1.98;;;16.00;99.90;;;;;;5023975;28;20227;-69
2023/09/16 02:30:52;;;;;;;5.88;2.15;;;16.00;99.90;;;;;;5028939;28;20668;-69
2023/09/16 02:33:18;;;;;;;5.45;1.92;;;16.00;99.90;;;;;;5029842;28;20553;-68
2023/09/16 02:35:44;;;;;;;3.60;2.00;;;15.90;99.90;;;;;;5030134;28;20200;-69
2023/09/16 02:38:09;;;;;;;3.85;1.95;;;15.90;99.90;;;;;;5029719;28;20291;-69
2023/09/16 02:40:40;;;;;;;5.20;1.70;;;15.90;99.90;;;;;;5029334;28;20223;-69
2023/09/16 02:43:05;;;;;;;7.10;1.98;;;15.90;99.90;;;;;;5029622;28;20226;-69
2023/09/16 02:45:31;;;;;;;4.43;1.80;;;15.90;99.90;;;;;;5030294;28;20184;-68
2023/09/16 02:47:57;;;;;;;2.20;1.70;;;15.80;99.90;;;;;;5033172;28;20729;-69
2023/09/16 02:50:22;;;;;;;4.72;1.73;;;15.80;99.90;;;;;;5033475;28;20216;-68
2023/09/16 02:52:48;;;;;;;3.30;1.85;;;15.80;99.90;;;;;;5029652;28;20307;-68
2023/09/16 02:55:16;;;;;;;5.18;1.77;;;15.80;99.90;;;;;;5022866;28;20282;-68
2023/09/16 02:57:41;;;;;;;4.95;2.00;;;15.80;99.90;;;;;;5032906;28;20593;-69
2023/09/16 03:00:07;;;;;;;3.20;1.88;;;15.70;99.90;;;;;;5033958;28;20180;-69
2023/09/16 03:02:33;;;;;;;4.22;2.00;;;15.80;99.90;;;;;;5026509;28;20213;-69
2023/09/16 03:04:59;;;;;;;2.65;2.05;;;15.70;99.90;;;;;;5032971;28;20520;-69
2023/09/16 03:07:24;;;;;;;3.83;1.98;;;15.80;99.90;;;;;;5032777;28;20224;-69
2023/09/16 03:09:50;;;;;;;2.45;1.83;;;15.70;99.90;;;;;;5033271;28;20198;-69
2023/09/16 03:12:15;;;;;;;3.00;1.95;;;15.70;99.90;;;;;;5031306;28;20231;-69
2023/09/16 03:14:41;;;;;;;3.30;1.90;;;15.70;99.90;;;;;;5030797;28;20263;-69
2023/09/16 03:17:06;;;;;;;3.35;1.90;;;15.60;99.90;;;;;;5030268;28;20216;-70
2023/09/16 03:19:32;;;;;;;5.30;1.75;;;15.70;99.90;;;;;;5032881;28;20208;-70
2023/09/16 03:21:58;;;;;;;3.92;1.98;;;15.70;99.90;;;;;;5032936;28;20177;-69
2023/09/16 03:24:23;;;;;;;2.15;1.63;;;15.70;99.90;;;;;;5031819;28;20768;-69
2023/09/16 03:26:49;;;;;;;3.40;2.03;;;15.70;99.90;;;;;;5028711;28;20196;-70
2023/09/16 03:29:15;;;;;;;6.22;2.00;;;15.80;99.90;;;;;;5031537;28;20242;-68
2023/09/16 03:31:40;;;;;;;4.38;2.58;;;15.70;99.90;;;;;;5024471;28;20595;-69
2023/09/16 03:34:06;;;;;;;4.32;1.63;;;15.70;99.90;;;;;;5031713;28;20215;-70
2023/09/16 03:36:31;;;;;;;3.35;2.10;;;15.70;99.90;;;;;;5028356;28;20207;-69
2023/09/16 03:38:57;;;;;;;2.78;1.80;;;15.60;99.90;;;;;;5027740;28;20215;-69
2023/09/16 03:41:23;;;;;;;5.20;2.10;;;15.70;99.90;;;;;;5032353;28;20709;-69
2023/09/16 03:43:49;;;;;;;3.50;2.20;;;15.80;99.90;;;;;;5027812;28;20255;-70
2023/09/16 03:46:14;;;;;;;2.85;1.77;;;15.70;99.90;;;;;;5028129;28;20243;-69
2023/09/16 03:48:40;;;;;;;3.75;2.10;;;15.60;99.90;;;;;;5032673;28;20200;-70
2023/09/16 03:51:07;;;;;;;4.60;2.08;;;15.70;99.90;;;;;;5029498;28;20215;-69
2023/09/16 03:53:33;;;;;;;2.53;1.80;;;15.60;99.90;;;;;;5026286;28;20228;-69
2023/09/16 03:56:05;;;;;;;5.82;1.92;;;15.60;99.90;;;;;;5027643;28;20287;-69
2023/09/16 03:58:31;;;;;;;8.00;2.30;;;15.50;99.90;;;;;;5028396;28;20212;-69
2023/09/16 04:00:57;;;;;;;6.57;1.77;;;15.50;99.90;;;;;;5031319;28;20173;-70
2023/09/16 04:03:23;;;;;;;2.92;1.83;;;15.50;99.90;;;;;;5032360;28;20195;-69
2023/09/16 04:05:48;;;;;;;4.28;2.10;;;15.40;99.90;;;;;;5028777;28;20208;-70
2023/09/16 04:08:14;;;;;;;5.50;1.98;;;15.40;99.90;;;;;;5024416;28;20224;-68
2023/09/16 04:10:39;;;;;;;2.28;1.67;;;15.40;99.90;;;;;;5032204;28;20200;-71
2023/09/16 04:13:05;;;;;;;3.08;2.30;;;15.40;99.90;;;;;;5030695;28;20208;-71
2023/09/16 04:15:30;;;;;;;4.47;2.40;;;15.40;99.90;;;;;;5026653;28;20210;-70
2023/09/16 04:17:56;;;;;;;6.45;1.95;;;15.40;99.90;;;;;;5024366;28;20587;-71
2023/09/16 04:20:24;;;;;;;5.10;2.22;;;15.40;99.90;;;;;;5029232;28;20216;-69
2023/09/16 04:22:50;;;;;;;3.80;2.20;;;15.30;99.90;;;;;;5029439;28;20710;-71
2023/09/16 04:25:15;;;;;;;4.43;2.30;;;15.30;99.90;;;;;;5025121;28;20220;-71
2023/09/16 04:27:41;;;;;;;6.57;1.90;;;15.30;99.90;;;;;;5030110;28;20318;-71
2023/09/16 04:30:08;;;;;;;3.75;1.98;;;15.20;99.90;;;;;;5032224;28;20282;-71
2023/09/16 04:32:33;;;;;;;4.40;1.90;;;15.20;99.90;;;;;;5026562;28;20581;-71
2023/09/16 04:34:59;;;;;;;3.83;2.30;;;15.20;99.90;;;;;;5027013;28;20205;-71
2023/09/16 04:37:25;;;;;;;3.50;2.00;;;15.20;99.90;;;;;;5031069;28;20263;-71
2023/09/16 04:39:50;;;;;;;3.90;1.92;;;15.10;99.90;;;;;;5030984;28;20201;-70
2023/09/16 04:42:16;;;;;;;5.40;2.70;;;15.00;99.90;;;;;;5032150;28;20184;-71
2023/09/16 04:44:42;;;;;;;4.82;3.83;;;15.10;99.90;;;;;;5025635;28;20234;-71
2023/09/16 04:47:07;;;;;;;3.35;1.73;;;15.00;99.90;;;;;;5022736;28;20241;-71
2023/09/16 04:49:33;;;;;;;5.28;2.10;;;15.10;99.90;;;;;;5024017;28;20210;-71
2023/09/16 04:51:59;;;;;;;3.60;2.50;;;15.10;99.90;;;;;;5029239;28;20176;-71
2023/09/16 04:54:24;;;;;;;5.13;2.45;;;15.10;99.90;;;;;;5026451;28;20181;-71
2023/09/16 04:56:50;;;;;;;2.92;1.85;;;15.10;99.90;;;;;;5023598;28;20208;-71
2023/09/16 04:59:16;;;;;;;8.07;2.75;;;15.10;99.90;;;;;;5027721;28;20554;-71
2023/09/16 05:01:41;;;;;;;2.70;1.95;;;15.10;99.90;;;;;;5026485;28;20382;-71
2023/09/16 05:04:07;;;;;;;3.75;2.42;;;15.20;99.90;;;;;;5028141;28;20204;-70
2023/09/16 05:06:32;;;;;;;5.95;2.58;;;15.20;99.90;;;;;;5027921;28;20280;-70
2023/09/16 05:08:59;;;;;;;4.75;2.85;;;15.30;99.90;;;;;;5027662;28;20729;-70
2023/09/16 05:11:25;;;;;;;4.93;2.92;;;15.40;99.90;;;;;;5030623;28;20212;-70
2023/09/16 05:13:51;;;;;;;4.28;2.42;;;15.50;99.90;;;;;;5030127;28;20832;-70
2023/09/16 05:16:16;;;;;;;8.07;3.08;;;15.50;99.90;;;;;;5030312;28;20234;-71
2023/09/16 05:18:42;;;;;;;5.60;2.83;;;15.50;99.90;;;;;;5031492;28;20259;-70
2023/09/16 05:21:08;;;;;;;5.32;2.83;;;15.50;99.90;;;;;;5027621;28;20185;-71
2023/09/16 05:23:37;;;;;;;5.18;2.60;;;15.60;99.90;;;;;;5023000;28;20701;-70
2023/09/16 05:26:04;;;;;;;4.32;2.40;;;15.60;99.90;;;;;;5020542;28;20296;-70
2023/09/16 05:28:30;;;;;;;4.07;2.50;;;15.50;99.90;;;;;;5024527;28;20224;-70
2023/09/16 05:30:58;;;;;;;6.60;2.88;;;15.80;99.90;;;;;;5021986;28;20181;-71
2023/09/16 05:33:25;;;;;;;7.50;3.35;;;15.80;99.90;;;;;;5027080;28;20176;-70
2023/09/16 05:35:51;;;;;;;6.15;2.40;;;15.90;99.90;;;;;;5030821;28;20310;-70
2023/09/16 05:38:16;;;;;;;6.90;2.40;;;16.40;99.90;;;;;;5026286;28;20208;-72
2023/09/16 05:40:42;;;;;;;4.28;2.63;;;17.40;99.90;;;;;;5023148;28;20287;-70
2023/09/16 05:43:08;;;;;;;4.68;3.22;;;17.20;99.90;;;;;;5026057;28;20212;-71
2023/09/16 05:45:33;;;;;;;6.13;2.53;;;17.50;99.90;;;;;;5028805;28;20180;-71
2023/09/16 05:48:02;;;;;;;5.00;3.10;;;17.70;99.90;;;;;;5027447;28;20212;-71
2023/09/16 05:50:29;;;;;;;4.32;2.80;;;18.30;99.90;;;;;;5028272;28;20266;-68
2023/09/16 05:52:55;;;;;;;8.43;3.42;;;19.50;99.90;;;;;;5029592;28;20243;-68
2023/09/16 05:55:20;;;;;;;4.53;3.33;;;21.10;99.90;;;;;;5030425;28;20233;-69
2023/09/16 05:57:46;;;;;;;6.20;2.42;;;21.80;99.90;;;;;;5028355;28;20208;-70
2023/09/16 06:00:12;;;;;;;4.30;2.28;;;22.30;99.90;;;;;;5023603;28;20189;-69
2023/09/16 06:02:38;;;;;;;6.43;3.47;;;21.90;99.90;;;;;;5019288;28;20250;-69
2023/09/16 06:05:08;;;;;;;4.75;2.63;;;21.90;99.90;;;;;;5021686;28;20293;-70
2023/09/16 06:07:41;;;;;;;5.03;2.95;;;21.30;99.90;;;;;;5025426;28;20294;-69
2023/09/16 06:10:08;;;;;;;4.55;2.70;;;22.60;99.90;;;;;;5026000;28;20248;-70
2023/09/16 06:12:33;;;;;;;6.00;2.58;;;23.40;99.90;;;;;;5025806;28;20168;-70
2023/09/16 06:14:59;;;;;;;7.32;2.35;;;23.80;99.90;;;;;;5026368;28;20208;-70
2023/09/16 06:17:25;;;;;;;3.75;2.30;;;24.00;99.90;;;;;;5026400;28;20208;-70
2023/09/16 06:19:55;;;;;;;4.70;2.30;;;22.50;99.90;;;;;;5029542;28;20219;-69
2023/09/16 06:22:24;;;;;;;7.50;2.92;;;23.10;99.90;;;;;;5029482;28;20628;-70
2023/09/16 06:24:51;;;;;;;4.03;2.72;;;23.20;99.90;;;;;;5026694;28;20180;-70
2023/09/16 06:27:17;;;;;;;6.35;2.60;;;23.00;99.90;;;;;;5029058;28;20319;-70
2023/09/16 06:29:43;;;;;;;6.32;2.97;;;23.20;99.90;;;;;;5028590;28;20295;-70
2023/09/16 06:32:10;;;;;;;8.68;3.70;;;23.60;99.90;;;;;;5025484;28;20211;-70
2023/09/16 06:34:36;;;;;;;6.05;2.50;;;24.00;99.90;;;;;;5026036;28;20719;-70
2023/09/16 06:37:05;;;;;;;4.22;2.95;;;23.80;99.90;;;;;;5018987;28;20228;-69
2023/09/16 06:39:33;;;;;;;4.65;2.35;;;24.70;99.90;;;;;;5023185;28;20607;-70
2023/09/16 06:41:59;;;;;;;5.13;2.95;;;23.40;99.90;;;;;;5023029;28;20217;-70
2023/09/16 06:44:25;;;;;;;7.13;2.75;;;23.30;99.90;;;;;;5029242;28;20310;-70
2023/09/16 06:46:50;;;;;;;4.57;2.72;;;23.50;99.90;;;;;;5029570;28;20216;-68
2023/09/16 06:49:19;;;;;;;8.38;3.30;;;24.90;99.90;;;;;;5025050;28;20208;-69
2023/09/16 06:51:44;;;;;;;5.93;3.00;;;25.90;99.90;;;;;;5024694;28;20211;-69
2023/09/16 06:54:10;;;;;;;6.57;3.47;;;25.50;99.90;;;;;;5025531;28;20173;-68
2023/09/16 06:56:35;;;;;;;6.88;3.03;;;25.00;99.90;;;;;;5026954;28;20231;-69
2023/09/16 06:59:01;;;;;;;6.68;2.97;;;25.30;99.90;;;;;;5025722;28;20209;-69
2023/09/16 07:01:27;;;;;;;6.10;3.33;;;25.70;99.90;;;;;;5026104;28;20216;-70
2023/09/16 07:03:53;;;;;;;5.47;3.35;;;25.30;99.90;;;;;;5026541;28;20169;-68
2023/09/16 07:06:18;;;;;;;7.38;2.90;;;25.80;99.90;;;;;;5029193;28;20220;-67
2023/09/16 07:08:44;;;;;;;4.38;2.92;;;25.50;99.90;;;;;;5028796;28;20208;-68
2023/09/16 07:11:12;;;;;;;4.78;3.60;;;25.40;99.90;;;;;;5025889;28;20201;-67
2023/09/16 07:13:38;;;;;;;3.78;2.60;;;25.20;99.90;;;;;;5022102;28;20208;-69
2023/09/16 07:16:04;;;;;;;8.80;2.90;;;25.80;99.90;;;;;;5028216;28;20579;-69
2023/09/16 07:18:30;;;;;;;5.20;3.13;;;25.20;99.90;;;;;;5023265;28;20184;-69
2023/09/16 07:20:56;;;;;;;3.83;2.83;;;24.90;99.90;;;;;;5021687;28;20213;-69
2023/09/16 07:23:22;;;;;;;3.78;2.35;;;24.70;99.90;;;;;;5023314;28;20698;-67
2023/09/16 07:25:55;;;;;;;5.47;3.78;;;25.80;99.90;;;;;;5023929;28;20205;-69
2023/09/16 07:28:21;;;;;;;4.55;2.65;;;27.10;99.90;;;;;;5023436;28;20572;-68
2023/09/16 07:30:47;;;;;;;5.75;3.55;;;27.00;99.90;;;;;;5026083;28;20208;-68
2023/09/16 07:33:13;;;;;;;4.03;2.50;;;27.10;99.90;;;;;;5026123;28;20205;-67
2023/09/16 07:35:38;;;;;;;5.60;3.15;;;27.20;99.90;;;;;;5030674;28;20212;-69
2023/09/16 07:38:04;;;;;;;6.18;2.55;;;26.20;99.90;;;;;;5029553;28;20332;-68
2023/09/16 07:40:32;;;;;;;3.78;2.90;;;25.70;99.90;;;;;;5031350;28;20315;-68
2023/09/16 07:42:58;;;;;;;6.80;3.50;;;26.70;99.90;;;;;;5030983;28;20603;-68
2023/09/16 07:45:24;;;;;;;5.65;2.70;;;26.50;99.90;;;;;;5032025;28;20170;-68
2023/09/16 07:47:49;;;;;;;4.55;3.13;;;25.70;99.90;;;;;;5027370;28;20270;-68
2023/09/16 07:50:15;;;;;;;3.47;2.72;;;25.40;99.90;;;;;;5022193;28;20201;-68
2023/09/16 07:52:42;;;;;;;5.20;3.15;;;25.80;99.90;;;;;;5025484;28;20200;-69
2023/09/16 07:55:08;;;;;;;5.38;3.25;;;25.40;99.90;;;;;;5023124;28;20200;-69
2023/09/16 07:57:34;;;;;;;5.85;2.78;;;25.70;99.90;;;;;;5026171;28;20201;-69
2023/09/16 07:59:59;;;;;;;5.15;2.60;;;26.30;99.90;;;;;;5026856;28;20589;-69
2023/09/16 08:02:25;;;;;;;5.05;3.20;;;27.30;99.90;;;;;;5031590;28;20217;-69
2023/09/16 08:04:51;;;;;;;4.85;2.67;;;27.40;99.90;;;;;;5027553;28;20228;-69
2023/09/16 08:07:16;;;;;;;6.03;2.80;;;27.10;99.90;;;;;;5027231;28;20209;-69
2023/09/16 08:09:42;;;;;;;7.03;2.60;;;27.00;99.90;;;;;;5028695;28;20215;-69
2023/09/16 08:12:08;;;;;;;5.38;2.88;;;26.00;99.90;;;;;;5029085;28;20257;-69
2023/09/16 08:14:34;;;;;;;3.95;2.70;;;26.30;99.90;;;;;;5027398;28;20209;-68
2023/09/16 08:17:03;;;;;;;7.18;2.90;;;26.10;99.90;;;;;;5030519;28;20291;-69
2023/09/16 08:19:30;;;;;;;3.90;3.03;;;26.70;99.90;;;;;;5031980;28;20204;-69
2023/09/16 08:21:55;;;;;;;7.38;2.58;;;26.50;99.90;;;;;;5031521;28;20551;-68
2023/09/16 08:24:22;;;;;;;4.85;2.92;;;26.90;99.90;;;;;;5028641;28;20173;-68
2023/09/16 08:26:48;;;;;;;5.30;2.65;;;26.40;99.90;;;;;;5024568;28;20216;-69
2023/09/16 08:29:14;;;;;;;5.00;3.20;;;27.80;99.90;;;;;;5021321;28;20302;-67
2023/09/16 08:31:39;;;;;;;4.10;2.78;;;26.70;99.90;;;;;;5023683;28;20205;-69
2023/09/16 08:34:05;;;;;;;6.78;2.70;;;26.80;99.90;;;;;;5026863;28;20220;-70
2023/09/16 08:36:31;;;;;;;3.72;2.65;;;26.20;99.90;;;;;;5027115;28;20215;-69
2023/09/16 08:38:56;;;;;;;4.85;2.75;;;27.10;99.90;;;;;;5026144;28;20212;-69
2023/09/16 08:41:59;;;;;;;3.83;2.53;;;26.20;99.90;;;;;;5031612;28;20204;-70
2023/09/16 08:44:28;;;;;;;3.85;2.63;;;25.80;99.90;;;;;;5035658;28;20215;-70
2023/09/16 08:47:06;;;;;;;4.10;2.78;;;25.60;99.90;;;;;;5027782;28;20250;-70
2023/09/16 08:49:34;;;;;;;3.47;2.47;;;25.60;99.90;;;;;;5026858;28;20208;-70
2023/09/16 08:52:03;;;;;;;3.70;2.65;;;26.10;99.90;;;;;;5028187;28;20204;-70
2023/09/16 08:54:32;;;;;;;4.97;2.60;;;26.10;99.90;;;;;;5030333;28;20639;-69
2023/09/16 08:56:59;;;;;;;8.75;2.60;;;25.00;99.90;;;;;;5029264;28;20602;-69
2023/09/16 08:59:25;;;;;;;5.13;2.60;;;25.00;99.90;;;;;;5029874;28;20208;-69
2023/09/16 09:01:51;;;;;;;4.88;2.63;;;24.60;99.90;;;;;;5022315;28;20208;-70
2023/09/16 09:04:17;;;;;;;4.75;2.35;;;23.70;99.90;;;;;;5028998;28;20209;-69
2023/09/16 09:06:43;;;;;;;5.63;2.70;;;23.10;99.90;;;;;;5030973;28;20235;-69
2023/09/16 09:09:09;;;;;;;5.68;2.67;;;23.30;99.90;;;;;;5022792;28;20196;-69
2023/09/16 09:11:36;;;;;;;4.28;2.90;;;23.40;99.90;;;;;;5024846;28;20204;-68
2023/09/16 09:14:03;;;;;;;5.30;2.45;;;23.80;99.90;;;;;;5026700;28;20770;-69
2023/09/16 09:16:30;;;;;;;5.30;2.40;;;24.30;99.90;;;;;;5025243;28;20216;-69
2023/09/16 09:18:56;;;;;;;4.97;2.50;;;24.90;99.90;;;;;;5028603;28;20200;-68
2023/09/16 09:21:22;;;;;;;7.32;2.63;;;25.30;99.90;;;;;;5028272;28;20554;-69
2023/09/16 09:23:48;;;;;;;3.53;2.60;;;24.60;99.90;;;;;;5027406;28;20200;-69
2023/09/16 09:26:14;;;;;;;6.90;3.13;;;24.40;99.90;;;;;;5030711;28;20215;-67
2023/09/16 09:28:43;;;;;;;5.20;3.03;;;25.40;99.90;;;;;;5025805;28;20212;-69
2023/09/16 09:31:09;;;;;;;5.18;2.72;;;26.00;99.90;;;;;;5028718;28;20247;-68
2023/09/16 09:33:42;;;;;;;4.97;2.80;;;25.60;99.90;;;;;;5030148;28;20172;-69
2023/09/16 09:36:12;;;;;;;3.75;2.55;;;25.80;99.90;;;;;;5029541;28;20291;-68
2023/09/16 09:38:43;;;;;;;5.90;4.57;;;25.90;99.90;;;;;;5026062;28;20205;-69
2023/09/16 09:41:09;;;;;;;4.70;2.88;;;25.40;99.90;;;;;;5023096;28;20205;-69
2023/09/16 09:43:35;;;;;;;7.25;2.58;;;24.70;99.90;;;;;;5025763;28;20212;-69
2023/09/16 09:46:01;;;;;;;5.00;3.60;;;24.40;99.90;;;;;;5023701;28;20172;-69
2023/09/16 09:48:27;;;;;;;6.80;2.90;;;24.10;99.90;;;;;;5021626;28;20197;-69
2023/09/16 09:50:52;;;;;;;3.72;2.47;;;23.40;99.90;;;;;;5027820;28;20219;-68
2023/09/16 09:53:18;;;;;;;10.30;3.42;;;23.20;99.90;;;;;;5026180;28;20280;-68
2023/09/16 09:55:44;;;;;;;3.83;2.80;;;23.60;99.90;;;;;;5028894;28;20208;-69
2023/09/16 09:58:10;;;;;;;4.88;3.33;;;24.20;99.90;;;;;;5027618;28;20216;-68
2023/09/16 10:00:36;;;;;;;4.68;2.90;;;24.60;99.90;;;;;;5030640;28;20169;-68
2023/09/16 10:03:02;;;;;;;4.70;2.88;;;24.90;99.90;;;;;;5025186;28;20303;-69
2023/09/16 10:05:27;;;;;;;4.00;2.75;;;24.70;99.90;;;;;;5027940;28;20212;-68
2023/09/16 10:10:53;;;;;;;2.92;2.10;;;23.70;99.90;;;;;;5044887;22;20221;-73
2023/09/16 10:13:25;;;;;;;4.82;3.53;;;23.40;99.90;;;;;;5020623;28;20220;-73
2023/09/16 10:19:44;;;;;;;5.03;3.08;;;23.80;99.90;;;;;;5023522;28;20193;-72
2023/09/16 10:22:19;;;;;;;5.57;3.75;;;24.10;99.90;;;;;;5013515;28;20212;-73
2023/09/16 10:25:07;;;;;;;4.93;2.45;;;24.30;99.90;;;;;;5027068;28;20206;-73
2023/09/16 10:28:20;;;;;;;3.03;2.30;;;23.60;99.90;;;;;;5024241;28;20201;-73
2023/09/16 10:30:59;;;;;;;6.00;3.17;;;23.70;99.90;;;;;;4971232;28;20251;-72
2023/09/16 10:33:28;;;;;;;4.60;2.53;;;23.80;99.90;;;;;;4989058;28;20186;-73
2023/09/16 10:36:12;;;;;;;3.78;2.50;;;23.90;99.90;;;;;;5018857;28;20341;-73
2023/09/16 10:42:19;;;;;;;5.20;2.40;;;24.10;99.90;;;;;;5034403;28;20261;-72
2023/09/16 10:44:56;;;;;;;5.90;2.65;;;24.30;99.90;;;;;;5032959;28;20346;-71
2023/09/16 10:47:43;;;;;;;4.95;3.42;;;24.70;99.90;;;;;;5023857;28;20278;-72
2023/09/16 10:50:34;;;;;;;4.03;3.20;;;24.90;99.90;;;;;;5015419;28;20212;-73
2023/09/16 10:53:15;;;;;;;3.65;2.50;;;24.80;99.90;;;;;;5021282;28;20204;-73
2023/09/16 10:55:55;;;;;;;7.18;3.42;;;25.10;99.90;;;;;;5025803;28;20207;-73
2023/09/16 10:58:42;;;;;;;7.22;3.42;;;24.90;99.90;;;;;;5019095;28;20204;-73
2023/09/16 11:01:11;;;;;;;4.35;3.08;;;24.30;99.90;;;;;;5016937;28;20235;-73
2023/09/16 11:03:41;;;;;;;8.40;3.30;;;24.50;99.90;;;;;;5025590;28;20178;-73
2023/09/16 11:06:07;;;;;;;4.38;2.70;;;24.70;99.90;;;;;;5023804;28;20208;-73
2023/09/16 11:08:33;;;;;;;9.88;4.28;;;24.70;99.90;;;;;;5028470;28;20593;-73
2023/09/16 11:11:01;;;;;;;7.15;3.17;;;24.60;99.90;;;;;;5022536;28;20207;-73
2023/09/16 11:13:28;;;;;;;5.43;2.85;;;24.80;99.90;;;;;;5031980;28;20274;-73
2023/09/16 11:15:58;;;;;;;4.60;3.05;;;25.20;99.90;;;;;;5030143;28;20172;-74
2023/09/16 11:18:24;;;;;;;3.42;2.72;;;25.10;99.90;;;;;;5030352;28;20583;-73
2023/09/16 11:20:50;;;;;;;4.65;2.67;;;25.10;99.90;;;;;;5030760;28;20196;-73
2023/09/16 11:23:16;;;;;;;5.25;2.60;;;24.90;99.90;;;;;;5022099;28;20706;-73
2023/09/16 11:25:43;;;;;;;5.03;3.03;;;24.70;99.90;;;;;;5031995;28;20204;-72
2023/09/16 11:28:16;;;;;;;5.93;3.00;;;25.00;99.90;;;;;;5031745;28;20240;-72
2023/09/16 11:30:56;;;;;;;5.10;3.42;;;25.10;99.90;;;;;;5029939;28;20192;-73
2023/09/16 11:33:26;;;;;;;5.25;3.38;;;25.00;99.90;;;;;;5031979;28;20234;-73
2023/09/16 11:36:14;;;;;;;4.45;2.78;;;25.00;99.90;;;;;;5032254;28;20295;-72
2023/09/16 11:38:53;;;;;;;3.85;3.03;;;24.60;99.90;;;;;;5024298;28;20209;-73
2023/09/16 11:41:19;;;;;;;3.10;2.80;;;24.60;99.90;;;;;;5027608;28;20215;-73
2023/09/16 11:43:45;;;;;;;3.30;2.75;;;24.90;99.90;;;;;;5028523;28;20200;-73
2023/09/16 11:46:12;;;;;;;4.85;3.63;;;24.80;99.90;;;;;;5029006;28;20262;-73
2023/09/16 11:49:00;;;;;;;6.07;2.95;;;24.80;99.90;;;;;;5024506;28;20204;-73
2023/09/16 11:51:26;;;;;;;4.50;3.63;;;25.10;99.90;;;;;;5030609;28;20291;-73
2023/09/16 11:53:53;;;;;;;5.55;3.30;;;25.20;99.90;;;;;;5032957;28;20689;-72
2023/09/16 11:56:22;;;;;;;4.93;3.70;;;25.00;99.90;;;;;;5029215;28;20212;-73
2023/09/16 11:58:48;;;;;;;3.85;3.08;;;25.10;99.90;;;;;;5031123;28;20211;-72
2023/09/16 12:01:24;;;;;;;5.93;3.25;;;25.10;99.90;;;;;;5031546;28;20204;-72
2023/09/16 12:03:54;;;;;;;5.10;3.10;;;24.90;99.90;;;;;;5031282;28;20176;-72
2023/09/16 12:06:21;;;;;;;6.38;3.50;;;24.90;99.90;;;;;;5032004;28;20214;-73
2023/09/16 12:08:47;;;;;;;3.90;3.40;;;24.90;99.90;;;;;;5023287;28;20279;-72
2023/09/16 12:11:13;;;;;;;4.00;3.25;;;25.00;99.90;;;;;;5023529;28;20211;-71
2023/09/16 12:13:42;;;;;;;5.80;3.60;;;25.10;99.90;;;;;;5022547;28;20686;-72
2023/09/16 12:16:09;;;;;;;4.90;3.22;;;24.90;99.90;;;;;;5029408;28;20278;-72
2023/09/16 12:18:35;;;;;;;6.45;3.55;;;24.80;99.90;;;;;;5023367;28;20208;-72
2023/09/16 12:21:02;;;;;;;6.43;3.97;;;24.90;99.90;;;;;;5022285;28;20205;-72
2023/09/16 12:23:30;;;;;;;5.63;3.30;;;24.90;99.90;;;;;;5018017;28;20217;-72
2023/09/16 12:25:58;;;;;;;3.13;2.83;;;24.80;99.90;;;;;;5013219;28;20567;-72
2023/09/16 12:28:24;;;;;;;5.75;4.00;;;24.90;99.90;;;;;;5028142;28;20652;-71
2023/09/16 12:30:55;;;;;;;5.65;3.70;;;24.90;99.90;;;;;;5028704;28;20226;-71
2023/09/16 12:33:21;;;;;;;6.32;3.22;;;25.00;99.90;;;;;;5024010;28;20697;-71
2023/09/16 12:35:47;;;;;;;4.45;3.38;;;24.80;99.90;;;;;;5030960;28;20208;-73
2023/09/16 12:38:17;;;;;;;5.63;3.20;;;24.90;99.90;;;;;;5022968;28;20462;-71
2023/09/16 12:40:44;;;;;;;3.38;2.85;;;25.00;99.90;;;;;;5028291;28;20234;-72
2023/09/16 12:43:11;;;;;;;5.22;3.25;;;25.00;99.90;;;;;;5026244;28;20208;-72
2023/09/16 12:45:38;;;;;;;4.60;2.85;;;25.00;99.90;;;;;;5019831;28;20181;-72
2023/09/16 12:48:04;;;;;;;4.05;2.80;;;25.10;99.90;;;;;;5020695;28;20297;-72
2023/09/16 12:50:30;;;;;;;4.25;3.15;;;25.10;99.90;;;;;;5026736;28;20702;-72
2023/09/16 12:52:56;;;;;;;6.05;3.28;;;25.10;99.90;;;;;;5025946;28;20595;-73
2023/09/16 12:55:25;;;;;;;5.13;3.45;;;25.10;99.90;;;;;;5019850;28;20327;-72
2023/09/16 12:57:52;;;;;;;3.45;2.80;;;25.00;99.90;;;;;;5025477;28;20664;-71
2023/09/16 13:00:23;;;;;;;5.00;3.50;;;24.90;99.90;;;;;;5030104;28;21183;-70